Terminal Aerodrome Forecast
Issued by NWS

Home | Current Version | Previous Version | Text Only | Print | Product List | Glossary On
Versions: 1 2 3 4 5 6 7 8 9 10 11 12
000
FTUS42 KMLB 200541
TAFSUA
TAF
KSUA 200541Z 2006/2106 23006KT P6SM BKN250
     FM201400 21006KT P6SM SCT120 BKN250
     FM201700 18011KT P6SM FEW040 SCT120 BKN250
     FM210000 22005KT P6SM FEW040 BKN250=

USA.gov is the U.S. government's official web portal to all federal, state and local government web resources and services.